createdAt,value
2024-04-21T00:00:11.157Z,2.35
2024-04-21T00:05:12.811Z,2.32
2024-04-21T00:10:14.513Z,2.33
2024-04-21T00:15:16.237Z,2.40
2024-04-21T00:20:18.261Z,2.42
2024-04-21T00:25:20.043Z,2.43
2024-04-21T00:30:21.714Z,2.37
2024-04-21T00:35:23.423Z,2.40
2024-04-21T00:40:25.271Z,2.41
2024-04-21T00:45:31.857Z,2.42
2024-04-21T00:50:39.661Z,2.39
2024-04-21T00:55:41.443Z,2.46
2024-04-21T01:00:43.383Z,2.41
2024-04-21T01:05:45.217Z,2.52
2024-04-21T01:10:46.958Z,2.34
2024-04-21T01:15:53.700Z,2.33
2024-04-21T01:20:55.473Z,2.42
2024-04-21T01:25:57.181Z,2.43
2024-04-21T01:30:59.050Z,2.45
2024-04-21T01:36:00.737Z,2.48
2024-04-21T01:41:02.488Z,2.58
2024-04-21T01:46:04.523Z,2.64
2024-04-21T01:51:06.259Z,2.62
2024-04-21T01:56:07.946Z,2.55
2024-04-21T02:01:09.754Z,2.56
2024-04-21T02:06:11.532Z,2.54
2024-04-21T02:11:13.252Z,2.56
2024-04-21T02:16:15.071Z,2.56
2024-04-21T02:21:16.750Z,2.51
2024-04-21T02:26:18.436Z,2.54
2024-04-21T02:31:20.184Z,2.48
2024-04-21T02:36:21.873Z,2.44
2024-04-21T02:41:23.587Z,2.37
2024-04-21T02:46:25.331Z,2.41
2024-04-21T02:51:27.427Z,2.37
2024-04-21T02:56:29.109Z,2.37
2024-04-21T03:01:30.894Z,2.23
2024-04-21T03:06:32.597Z,2.16
2024-04-21T03:11:34.292Z,2.24
2024-04-21T03:16:35.991Z,2.21
2024-04-21T03:21:37.959Z,2.17
2024-04-21T03:26:39.621Z,2.14
2024-04-21T03:31:41.304Z,2.17
2024-04-21T03:36:42.987Z,2.08
2024-04-21T03:41:45.588Z,2.06
2024-04-21T03:46:47.258Z,2.10
2024-04-21T03:51:49.002Z,2.11
2024-04-21T03:56:50.703Z,2.14
2024-04-21T04:01:52.391Z,2.16
2024-04-21T04:06:54.125Z,2.08
2024-04-21T04:11:55.873Z,2.18
2024-04-21T04:16:57.552Z,2.09
2024-04-21T04:21:59.244Z,2.03
2024-04-21T04:27:00.933Z,1.99
2024-04-21T04:32:02.613Z,1.89
2024-04-21T04:37:04.352Z,1.79
2024-04-21T04:42:06.658Z,1.78
2024-04-21T04:47:08.386Z,1.78
2024-04-21T04:52:11.972Z,1.81
2024-04-21T04:57:13.724Z,1.75
2024-04-21T05:02:15.417Z,1.78
2024-04-21T05:07:17.167Z,1.69
2024-04-21T05:12:19.724Z,1.70
2024-04-21T05:17:21.442Z,1.79
2024-04-21T05:22:23.162Z,1.87
2024-04-21T05:27:24.869Z,1.97
2024-04-21T05:32:26.653Z,1.88
2024-04-21T05:37:28.455Z,1.88
2024-04-21T05:42:30.145Z,1.84
2024-04-21T05:47:31.919Z,1.78
2024-04-21T05:52:33.827Z,1.90
2024-04-21T05:57:35.494Z,1.92
2024-04-21T06:02:37.188Z,1.85
2024-04-21T06:07:38.895Z,1.83
2024-04-21T06:12:40.619Z,1.93
2024-04-21T06:17:42.355Z,2.01
2024-04-21T06:22:44.066Z,1.84
2024-04-21T06:27:45.752Z,1.77
2024-04-21T06:32:47.567Z,1.75
2024-04-21T06:37:49.262Z,1.71
2024-04-21T06:42:50.958Z,1.74
2024-04-21T06:47:52.682Z,1.81
2024-04-21T06:52:54.428Z,1.91
2024-04-21T06:57:56.151Z,1.97
2024-04-21T07:02:57.910Z,2.22
2024-04-21T07:07:59.598Z,2.28
2024-04-21T07:13:01.368Z,2.49
2024-04-21T07:18:03.226Z,2.41
2024-04-21T07:23:04.968Z,2.55
2024-04-21T07:28:06.699Z,2.82
2024-04-21T07:33:08.408Z,2.66
2024-04-21T07:38:10.231Z,2.66
2024-04-21T07:43:13.269Z,2.84
2024-04-21T07:48:15.144Z,2.91
2024-04-21T07:53:16.849Z,3.40
2024-04-21T07:58:18.602Z,3.36
2024-04-21T08:03:20.342Z,2.97
2024-04-21T08:08:22.119Z,2.85
2024-04-21T08:13:23.876Z,2.80
2024-04-21T08:18:26.002Z,2.92
2024-04-21T08:23:30.077Z,3.20
2024-04-21T08:28:31.935Z,3.50
2024-04-21T08:33:33.675Z,3.66
2024-04-21T08:38:35.496Z,3.73
2024-04-21T08:43:37.720Z,3.66
2024-04-21T08:48:39.432Z,3.71
2024-04-21T08:53:41.106Z,3.54
2024-04-21T08:58:42.786Z,3.48
2024-04-21T09:03:44.475Z,3.26
2024-04-21T09:08:46.164Z,3.20
2024-04-21T09:13:47.870Z,2.72
2024-04-21T09:18:49.636Z,2.90
2024-04-21T09:23:51.347Z,3.55
2024-04-21T09:28:53.182Z,4.29
2024-04-21T09:33:54.954Z,4.54
2024-04-21T09:38:56.625Z,5.37
2024-04-21T09:43:58.289Z,5.61
2024-04-21T09:49:00.209Z,5.51
2024-04-21T09:54:01.977Z,5.04
2024-04-21T09:59:03.614Z,4.44
2024-04-21T10:04:05.402Z,4.40
2024-04-21T10:09:07.116Z,4.39
2024-04-21T10:14:08.828Z,4.31
2024-04-21T10:19:10.565Z,4.05
2024-04-21T10:24:13.201Z,4.04
2024-04-21T10:29:14.935Z,4.19
2024-04-21T10:34:16.663Z,4.38
2024-04-21T10:39:27.810Z,4.80
2024-04-21T10:44:29.482Z,4.68
2024-04-21T10:49:31.144Z,5.03
2024-04-21T10:54:32.842Z,5.21
2024-04-21T10:59:34.497Z,4.85
2024-04-21T11:04:37.383Z,4.46
2024-04-21T11:09:39.230Z,4.78
2024-04-21T11:14:40.901Z,4.56
2024-04-21T11:19:42.615Z,4.76
2024-04-21T11:24:45.348Z,5.02
2024-04-21T11:29:47.477Z,5.49
2024-04-21T11:34:49.366Z,6.01
2024-04-21T11:39:51.039Z,5.80
2024-04-21T11:44:53.504Z,4.89
2024-04-21T11:49:55.174Z,4.65
2024-04-21T11:54:56.902Z,4.58
2024-04-21T11:59:59.107Z,4.90
2024-04-21T12:05:01.692Z,5.60
2024-04-21T12:10:03.647Z,6.51
2024-04-21T12:15:05.671Z,6.58
2024-04-21T12:20:07.527Z,6.15
2024-04-21T12:25:09.201Z,6.92
2024-04-21T12:30:12.681Z,7.07
2024-04-21T12:35:17.143Z,6.76
2024-04-21T12:40:18.980Z,6.67
2024-04-21T12:45:20.718Z,7.16
2024-04-21T12:50:22.480Z,7.13
2024-04-21T12:55:24.174Z,7.10
2024-04-21T13:00:25.899Z,7.46
2024-04-21T13:05:27.591Z,7.36
2024-04-21T13:10:29.404Z,7.43
2024-04-21T13:15:31.145Z,7.92
2024-04-21T13:20:32.860Z,8.09
2024-04-21T13:25:34.605Z,7.19
2024-04-21T13:30:36.387Z,6.30
2024-04-21T13:35:38.048Z,6.12
2024-04-21T13:40:39.801Z,5.87
2024-04-21T13:45:41.505Z,5.53
2024-04-21T13:50:43.186Z,5.91
2024-04-21T13:55:45.158Z,6.11
2024-04-21T14:00:47.363Z,6.17
2024-04-21T14:05:49.118Z,6.03
2024-04-21T14:10:50.828Z,6.06
2024-04-21T14:15:52.540Z,5.65
2024-04-21T14:20:56.058Z,5.53
2024-04-21T14:25:57.825Z,5.40
2024-04-21T14:31:02.392Z,5.43
2024-04-21T14:36:04.369Z,5.55
2024-04-21T14:41:09.035Z,5.10
2024-04-21T14:46:10.743Z,5.42
2024-04-21T14:51:12.445Z,5.82
2024-04-21T14:56:15.428Z,5.87
2024-04-21T15:01:17.219Z,5.44
2024-04-21T15:06:19.466Z,5.10
2024-04-21T15:11:21.738Z,4.99
2024-04-21T15:16:23.540Z,4.74
2024-04-21T15:21:25.274Z,4.77
2024-04-21T15:26:26.957Z,4.90
2024-04-21T15:31:28.687Z,4.94
2024-04-21T15:36:30.359Z,4.38
2024-04-21T15:41:32.461Z,4.52
2024-04-21T15:46:34.233Z,4.72
2024-04-21T15:51:36.573Z,4.59
2024-04-21T15:56:38.262Z,4.58
2024-04-21T16:01:40.011Z,4.41
2024-04-21T16:06:41.766Z,4.30
2024-04-21T16:11:43.466Z,4.09
2024-04-21T16:16:45.195Z,4.19
2024-04-21T16:21:47.032Z,4.61
2024-04-21T16:26:48.826Z,4.30
2024-04-21T16:31:50.607Z,4.13
2024-04-21T16:36:52.445Z,3.93
2024-04-21T16:41:54.321Z,3.68
2024-04-21T16:46:56.514Z,3.50
2024-04-21T16:52:00.915Z,3.34
2024-04-21T17:02:12.640Z,3.11
2024-04-21T17:07:18.531Z,3.08
2024-04-21T17:12:22.803Z,3.10
2024-04-21T17:17:24.616Z,3.04
2024-04-21T17:22:26.466Z,2.98
2024-04-21T17:27:28.215Z,2.79
2024-04-21T17:32:31.308Z,2.78
2024-04-21T17:37:33.090Z,2.68
2024-04-21T17:42:34.781Z,2.49
2024-04-21T17:47:36.560Z,2.41
2024-04-21T17:52:38.367Z,2.07
2024-04-21T17:57:40.119Z,1.98
2024-04-21T18:02:41.857Z,1.85
2024-04-21T18:07:44.794Z,1.82
2024-04-21T18:12:46.506Z,1.77
2024-04-21T18:17:48.428Z,1.69
2024-04-21T18:22:50.144Z,1.67
2024-04-21T18:27:51.832Z,1.62
2024-04-21T18:32:53.562Z,1.67
2024-04-21T18:37:55.465Z,1.75
2024-04-21T18:42:57.375Z,1.76
2024-04-21T18:47:59.105Z,1.71
2024-04-21T18:53:00.838Z,1.72
2024-04-21T18:58:02.713Z,1.70
2024-04-21T19:03:05.009Z,1.64
2024-04-21T19:08:09.905Z,1.65
2024-04-21T19:13:11.720Z,1.63
2024-04-21T19:18:14.948Z,1.58
2024-04-21T19:23:17.550Z,1.55
2024-04-21T19:28:19.278Z,1.52
2024-04-21T19:33:21.928Z,1.52
2024-04-21T19:38:24.095Z,1.52
2024-04-21T19:43:25.806Z,1.42
2024-04-21T19:48:27.611Z,1.30
2024-04-21T19:53:29.326Z,1.32
2024-04-21T19:58:31.403Z,1.31
2024-04-21T20:03:33.161Z,1.38
2024-04-21T20:08:34.884Z,1.46
2024-04-21T20:13:36.992Z,1.47
2024-04-21T20:18:41.982Z,1.43
2024-04-21T20:23:43.899Z,1.42
2024-04-21T20:28:45.899Z,1.37
2024-04-21T20:33:47.795Z,1.22
2024-04-21T20:38:49.972Z,1.13
2024-04-21T20:43:52.045Z,0.98
2024-04-21T20:48:54.049Z,0.92
2024-04-21T20:53:55.751Z,0.94
2024-04-21T20:58:58.504Z,0.95
2024-04-21T21:04:00.369Z,0.98
2024-04-21T21:09:02.098Z,1.02
2024-04-21T21:14:05.199Z,1.03
2024-04-21T21:19:06.935Z,0.99
2024-04-21T21:24:11.652Z,0.95
2024-04-21T21:29:13.328Z,0.97
2024-04-21T21:34:15.000Z,0.98
2024-04-21T21:39:16.691Z,0.98
2024-04-21T21:44:18.459Z,0.97
2024-04-21T21:49:20.218Z,0.91
2024-04-21T21:54:21.900Z,0.92
2024-04-21T21:59:23.654Z,0.92
2024-04-21T22:04:25.614Z,0.91
2024-04-21T22:14:51.667Z,0.88
2024-04-21T22:19:53.427Z,0.96
2024-04-21T22:24:55.102Z,0.94
2024-04-21T22:29:56.778Z,0.96
2024-04-21T22:34:58.460Z,0.96
2024-04-21T22:40:00.163Z,1.04
2024-04-21T22:45:01.888Z,0.97
2024-04-21T22:50:03.633Z,0.99
2024-04-21T22:55:05.477Z,0.98
2024-04-21T23:00:07.740Z,0.94
2024-04-21T23:05:09.403Z,0.91
2024-04-21T23:10:11.129Z,0.87
2024-04-21T23:15:12.831Z,0.85
2024-04-21T23:20:14.560Z,0.86
2024-04-21T23:25:16.243Z,0.80
2024-04-21T23:30:17.955Z,0.79
2024-04-21T23:35:19.642Z,0.74
2024-04-21T23:40:21.409Z,0.70
2024-04-21T23:45:23.073Z,0.65
2024-04-21T23:50:24.780Z,0.65
2024-04-21T23:55:26.488Z,0.59
